createdAt,value
2022-11-12T00:06:57.279Z,6.24
2022-11-12T00:17:03.678Z,6.19
2022-11-12T00:27:10.621Z,6.10
2022-11-12T00:37:18.893Z,6.00
2022-11-12T00:47:26.292Z,5.97
2022-11-12T00:57:33.285Z,6.01
2022-11-12T01:07:40.705Z,6.00
2022-11-12T01:17:47.798Z,6.04
2022-11-12T01:27:55.026Z,5.95
2022-11-12T01:38:02.016Z,5.86
2022-11-12T01:48:09.464Z,5.82
2022-11-12T01:58:19.622Z,5.76
2022-11-12T02:08:28.303Z,5.67
2022-11-12T02:18:35.497Z,5.61
2022-11-12T02:28:41.800Z,5.50
2022-11-12T02:38:48.857Z,5.28
2022-11-12T02:48:55.838Z,5.12
2022-11-12T02:59:03.547Z,5.05
2022-11-12T03:09:12.442Z,5.05
2022-11-12T03:19:19.756Z,5.05
2022-11-12T03:29:26.587Z,5.06
2022-11-12T03:39:33.583Z,5.00
2022-11-12T03:49:40.911Z,5.03
2022-11-12T03:59:47.892Z,5.01
2022-11-12T04:09:55.078Z,4.94
2022-11-12T04:20:19.761Z,4.83
2022-11-12T04:30:27.242Z,4.69
2022-11-12T04:40:52.486Z,4.57
2022-11-12T04:51:01.945Z,4.51
2022-11-12T05:01:09.153Z,4.56
2022-11-12T05:11:16.698Z,4.57
2022-11-12T05:21:43.581Z,4.62
2022-11-12T05:31:51.009Z,4.65
2022-11-12T05:42:12.518Z,4.63
2022-11-12T05:52:20.318Z,4.61
2022-11-12T06:02:27.391Z,4.53
2022-11-12T06:12:34.744Z,4.41
2022-11-12T06:22:41.997Z,4.43
2022-11-12T06:32:48.672Z,4.50
2022-11-12T06:42:58.158Z,4.64
2022-11-12T06:53:05.274Z,4.75
2022-11-12T07:03:14.757Z,4.88
2022-11-12T07:13:21.908Z,5.30
2022-11-12T07:23:30.473Z,6.56
2022-11-12T07:33:37.883Z,7.85
2022-11-12T07:43:46.722Z,8.36
2022-11-12T07:53:59.479Z,8.25
2022-11-12T08:04:09.923Z,8.27
2022-11-12T08:14:17.006Z,8.84
2022-11-12T08:24:24.185Z,9.82
2022-11-12T08:34:31.263Z,9.81
2022-11-12T08:44:38.278Z,10.03
2022-11-12T08:54:45.242Z,10.22
2022-11-12T09:04:52.273Z,10.52
2022-11-12T09:15:09.607Z,10.80
2022-11-12T09:25:26.218Z,10.98
2022-11-12T09:35:32.880Z,10.94
2022-11-12T09:45:40.542Z,10.77
2022-11-12T09:55:51.663Z,10.21
2022-11-12T10:06:06.012Z,10.07
2022-11-12T10:16:48.195Z,9.90
2022-11-12T10:26:58.885Z,9.75
2022-11-12T10:37:09.168Z,9.59
2022-11-12T10:47:33.239Z,9.55
2022-11-12T10:57:40.316Z,9.52
2022-11-12T11:07:52.265Z,9.60
2022-11-12T11:17:59.743Z,9.75
2022-11-12T11:28:06.990Z,9.77
2022-11-12T11:38:21.657Z,9.72
2022-11-12T11:48:32.901Z,9.75
2022-11-12T11:58:59.628Z,9.72
2022-11-12T12:09:08.177Z,9.67
2022-11-12T12:19:16.241Z,9.55
2022-11-12T12:29:24.720Z,9.49
2022-11-12T12:39:31.618Z,9.52
2022-11-12T12:49:41.621Z,9.46
2022-11-12T12:59:49.341Z,9.29
2022-11-12T13:10:32.886Z,9.15
2022-11-12T13:21:04.495Z,9.16
2022-11-12T13:31:25.993Z,9.30
2022-11-12T13:41:52.527Z,9.22
2022-11-12T13:52:01.051Z,9.01
2022-11-12T14:02:17.682Z,8.82
2022-11-12T14:12:35.954Z,8.71
2022-11-12T14:22:40.313Z,8.56
2022-11-12T14:32:49.163Z,8.42
2022-11-12T14:42:56.625Z,8.33
2022-11-12T14:53:07.282Z,8.22
2022-11-12T15:03:16.547Z,8.04
2022-11-12T15:13:28.539Z,7.84
2022-11-12T15:23:35.157Z,7.75
2022-11-12T15:33:42.644Z,7.60
2022-11-12T15:43:49.783Z,7.41
2022-11-12T15:53:56.945Z,7.25
2022-11-12T16:04:04.391Z,7.18
2022-11-12T16:14:15.680Z,7.12
2022-11-12T16:24:22.671Z,6.97
2022-11-12T16:34:29.444Z,6.92
2022-11-12T16:44:36.571Z,7.03
2022-11-12T16:54:43.760Z,7.03
2022-11-12T17:04:50.837Z,7.03
2022-11-12T17:14:57.866Z,7.04
2022-11-12T17:25:05.872Z,7.12
2022-11-12T17:35:13.088Z,7.25
2022-11-12T17:45:20.451Z,7.47
2022-11-12T17:55:27.503Z,7.62
2022-11-12T18:05:34.632Z,7.73
2022-11-12T18:15:41.964Z,7.81
2022-11-12T18:25:49.021Z,7.79
2022-11-12T18:36:01.586Z,7.75
2022-11-12T18:46:10.612Z,7.64
2022-11-12T18:56:19.643Z,7.62
2022-11-12T19:06:27.510Z,7.69
2022-11-12T19:16:34.958Z,7.72
2022-11-12T19:26:42.275Z,7.80
2022-11-12T19:37:00.600Z,7.70
2022-11-12T19:47:16.691Z,7.65
2022-11-12T19:57:23.309Z,7.71
2022-11-12T20:07:30.664Z,7.64
2022-11-12T20:17:39.364Z,7.54
2022-11-12T20:27:46.408Z,7.52
2022-11-12T20:37:53.547Z,7.66
2022-11-12T20:48:00.676Z,7.71
2022-11-12T20:58:09.987Z,7.64
2022-11-12T21:08:17.051Z,7.37
2022-11-12T21:18:28.334Z,7.18
2022-11-12T21:28:35.395Z,7.23
2022-11-12T21:38:41.864Z,7.37
2022-11-12T21:48:54.706Z,7.47
2022-11-12T21:59:04.589Z,7.49
2022-11-12T22:09:11.745Z,7.47
2022-11-12T22:19:21.580Z,7.37
2022-11-12T22:29:28.779Z,7.36
2022-11-12T22:39:35.775Z,7.40
2022-11-12T22:49:42.893Z,7.43
2022-11-12T22:59:50.055Z,7.41
2022-11-12T23:09:57.950Z,7.52
2022-11-12T23:20:05.126Z,7.56
2022-11-12T23:30:13.533Z,7.47
2022-11-12T23:40:19.841Z,7.37
2022-11-12T23:50:27.179Z,7.24
